Time;durP1;ratioP1;P1;durP2;ratioP2;P2;SDS_P1;SDS_P2;PMS_P1;PMS_P2;Temp;Humidity;BMP_temperature;BMP_pressure;BME280_temperature;BME280_humidity;BME280_pressure;Samples;Min_cycle;Max_cycle;Signal;HPM_P1;HPM_P2
2022/11/01 00:01:50;;;;;;;25.13;7.28;;;15.80;99.90;;;;;;5020877;28;20022;-77
2022/11/01 00:04:16;;;;;;;15.57;8.45;;;15.70;99.90;;;;;;5015437;28;20037;-77
2022/11/01 00:06:42;;;;;;;24.13;8.23;;;15.70;99.90;;;;;;5019304;28;20026;-77
2022/11/01 00:09:08;;;;;;;15.77;8.10;;;15.60;99.90;;;;;;5016338;28;20077;-76
2022/11/01 00:11:34;;;;;;;21.58;8.45;;;15.60;99.90;;;;;;5015613;28;20419;-76
2022/11/01 00:14:00;;;;;;;20.63;8.65;;;15.60;99.90;;;;;;5019818;28;20573;-76
2022/11/01 00:16:25;;;;;;;21.85;8.40;;;15.60;99.90;;;;;;5031068;28;20049;-75
2022/11/01 00:18:51;;;;;;;18.92;9.00;;;15.60;99.90;;;;;;5020397;28;20537;-75
2022/11/01 00:21:17;;;;;;;15.13;8.55;;;15.60;99.90;;;;;;5029194;28;20105;-74
2022/11/01 00:23:44;;;;;;;17.10;7.75;;;15.50;99.90;;;;;;5019145;28;20483;-74
2022/11/01 00:26:22;;;;;;;19.20;8.77;;;15.60;99.90;;;;;;5028275;28;20025;-74
2022/11/01 00:28:48;;;;;;;21.55;8.23;;;15.50;99.90;;;;;;5017467;28;20394;-73
2022/11/01 00:31:16;;;;;;;16.05;7.60;;;15.50;99.90;;;;;;5026862;28;20114;-71
2022/11/01 00:33:42;;;;;;;23.42;7.15;;;15.40;99.90;;;;;;5015599;28;20116;-74
2022/11/01 00:36:08;;;;;;;15.75;7.00;;;15.50;99.90;;;;;;5023087;28;20014;-73
2022/11/01 00:38:35;;;;;;;12.73;6.88;;;15.40;99.90;;;;;;5016086;28;20060;-74
2022/11/01 00:41:02;;;;;;;16.27;7.15;;;15.50;99.90;;;;;;5017563;28;20056;-73
2022/11/01 00:43:30;;;;;;;14.93;6.05;;;15.40;99.90;;;;;;5012570;28;20037;-74
2022/11/01 00:45:56;;;;;;;12.45;5.35;;;15.50;99.90;;;;;;5013222;28;20479;-73
2022/11/01 00:48:22;;;;;;;9.45;5.30;;;15.40;99.90;;;;;;5015893;28;20057;-74
2022/11/01 00:50:48;;;;;;;15.48;5.55;;;15.40;99.90;;;;;;5025245;28;20022;-74
2022/11/01 00:53:14;;;;;;;12.50;4.85;;;15.40;99.90;;;;;;5027464;28;20033;-74
2022/11/01 00:55:40;;;;;;;13.20;5.53;;;15.40;99.90;;;;;;5025573;28;20450;-74
2022/11/01 00:58:07;;;;;;;15.55;4.80;;;15.40;99.90;;;;;;5020392;28;20121;-73
2022/11/01 01:00:33;;;;;;;10.43;4.20;;;15.40;99.90;;;;;;5021235;28;20025;-72
2022/11/01 01:02:59;;;;;;;12.88;4.20;;;15.40;99.90;;;;;;5016075;28;20520;-72
2022/11/01 01:05:25;;;;;;;12.90;4.55;;;15.40;99.90;;;;;;5017773;28;20405;-72
2022/11/01 01:07:51;;;;;;;14.05;4.97;;;15.40;99.90;;;;;;5015922;28;20142;-73
2022/11/01 01:10:17;;;;;;;11.20;4.13;;;15.40;99.90;;;;;;5015451;28;20483;-72
2022/11/01 01:12:43;;;;;;;19.33;5.75;;;15.30;99.90;;;;;;5030024;28;20128;-72
2022/11/01 01:15:09;;;;;;;17.52;4.88;;;15.30;99.90;;;;;;5009353;28;20069;-73
2022/11/01 01:17:35;;;;;;;12.80;4.35;;;15.30;99.90;;;;;;5031000;28;20498;-72
2022/11/01 01:20:01;;;;;;;24.15;7.00;;;15.30;99.90;;;;;;5024620;28;20490;-73
2022/11/01 01:22:27;;;;;;;11.93;4.35;;;15.30;99.90;;;;;;5027984;28;20052;-73
2022/11/01 01:24:53;;;;;;;11.38;4.07;;;15.30;99.90;;;;;;5025536;28;20025;-73
2022/11/01 01:27:19;;;;;;;10.70;4.75;;;15.30;99.90;;;;;;5028539;28;20033;-73
2022/11/01 01:29:45;;;;;;;14.00;4.78;;;15.30;99.90;;;;;;5022493;28;20482;-73
2022/11/01 01:32:16;;;;;;;17.23;4.78;;;15.30;99.90;;;;;;5024986;28;20394;-73
2022/11/01 01:34:42;;;;;;;16.00;5.43;;;15.30;99.90;;;;;;5018410;28;20009;-73
2022/11/01 01:37:08;;;;;;;15.48;4.93;;;15.30;99.90;;;;;;5018479;28;20053;-72
2022/11/01 01:39:35;;;;;;;9.00;4.65;;;15.30;99.90;;;;;;5018841;28;20109;-73
2022/11/01 01:42:14;;;;;;;25.83;5.03;;;15.30;99.90;;;;;;5020829;28;20061;-73
2022/11/01 01:45:21;;;;;;;13.15;4.80;;;15.40;99.90;;;;;;5017400;28;20025;-72
2022/11/01 01:47:51;;;;;;;8.60;4.53;;;15.40;99.90;;;;;;5021294;28;20034;-72
2022/11/01 01:50:31;;;;;;;15.05;5.32;;;15.30;99.90;;;;;;5026120;28;20009;-73
2022/11/01 01:53:09;;;;;;;14.70;4.15;;;15.40;99.90;;;;;;5023323;28;20038;-73
2022/11/01 01:55:47;;;;;;;12.45;4.47;;;15.40;99.90;;;;;;5027592;28;20044;-73
2022/11/01 01:58:16;;;;;;;12.68;4.65;;;15.30;99.90;;;;;;5020818;28;20584;-73
2022/11/01 02:00:43;;;;;;;7.57;3.45;;;15.30;99.90;;;;;;5019782;28;20021;-72
2022/11/01 02:03:11;;;;;;;14.70;4.55;;;15.20;99.90;;;;;;5019070;28;20026;-72
2022/11/01 02:05:43;;;;;;;8.60;3.28;;;15.20;99.90;;;;;;5020318;28;20025;-72
2022/11/01 02:08:11;;;;;;;10.88;3.22;;;15.20;99.90;;;;;;5018207;28;20044;-73
2022/11/01 02:10:38;;;;;;;11.38;3.35;;;15.10;99.90;;;;;;5017752;28;20493;-72
2022/11/01 02:13:13;;;;;;;16.27;2.97;;;15.10;99.90;;;;;;5022519;28;20058;-72
2022/11/01 02:16:27;;;;;;;10.23;3.17;;;15.00;99.90;;;;;;5016936;28;20024;-72
2022/11/01 02:19:14;;;;;;;9.20;2.92;;;14.90;99.90;;;;;;5022925;28;20032;-72
2022/11/01 02:22:04;;;;;;;14.27;3.13;;;14.90;99.90;;;;;;5030493;28;20437;-73
2022/11/01 02:25:01;;;;;;;10.48;2.80;;;14.80;99.90;;;;;;5022093;28;20021;-72
2022/11/01 02:28:00;;;;;;;14.80;3.30;;;14.80;99.90;;;;;;5024859;28;20034;-73
2022/11/01 02:30:38;;;;;;;9.60;2.92;;;14.70;99.90;;;;;;5021566;28;20400;-73
2022/11/01 02:33:29;;;;;;;9.45;2.58;;;14.70;99.90;;;;;;5028968;28;20180;-72
2022/11/01 02:36:04;;;;;;;10.32;3.20;;;14.70;99.90;;;;;;5023894;28;20049;-73
2022/11/01 02:38:42;;;;;;;6.50;2.42;;;14.70;99.90;;;;;;5018349;28;20038;-72
2022/11/01 02:41:22;;;;;;;9.95;2.42;;;14.70;99.90;;;;;;5029830;28;20028;-72
2022/11/01 02:43:51;;;;;;;8.75;3.00;;;14.70;99.90;;;;;;5015619;28;20026;-73
2022/11/01 02:49:07;;;;;;;7.85;2.40;;;14.60;99.90;;;;;;5005668;28;20053;-72
2022/11/01 02:51:35;;;;;;;13.63;3.05;;;14.60;99.90;;;;;;5021486;28;20021;-73
2022/11/01 02:54:11;;;;;;;11.50;3.00;;;14.60;99.90;;;;;;5025745;28;20026;-71
2022/11/01 02:56:38;;;;;;;7.05;2.65;;;14.60;99.90;;;;;;5023075;28;20034;-72
2022/11/01 02:59:08;;;;;;;11.63;3.15;;;14.60;99.90;;;;;;5022251;28;20509;-72
2022/11/01 03:01:35;;;;;;;11.13;3.25;;;14.50;99.90;;;;;;5022165;28;20022;-72
2022/11/01 03:04:02;;;;;;;12.80;2.78;;;14.50;99.90;;;;;;5018832;28;20038;-72
2022/11/01 03:06:39;;;;;;;9.98;3.13;;;14.50;99.90;;;;;;5019931;28;20380;-72
2022/11/01 03:09:10;;;;;;;9.77;2.63;;;14.50;99.90;;;;;;5014749;28;20073;-72
2022/11/01 03:11:51;;;;;;;9.73;2.95;;;14.50;99.90;;;;;;5013494;28;20034;-72
2022/11/01 03:14:35;;;;;;;13.35;2.90;;;14.50;99.90;;;;;;5019129;28;20041;-71
2022/11/01 03:17:21;;;;;;;11.77;3.17;;;14.50;99.90;;;;;;5026140;28;20044;-72
2022/11/01 03:19:55;;;;;;;8.70;2.95;;;14.50;99.90;;;;;;5025866;28;20045;-72
2022/11/01 03:22:37;;;;;;;8.52;2.67;;;14.50;99.90;;;;;;5026308;28;20037;-72
2022/11/01 03:28:07;;;;;;;7.60;2.40;;;14.50;99.90;;;;;;5012457;28;20033;-72
2022/11/01 03:30:34;;;;;;;13.30;2.60;;;14.40;99.90;;;;;;5021310;28;20442;-72
2022/11/01 03:33:00;;;;;;;9.25;3.42;;;14.50;99.90;;;;;;5028144;28;20034;-72
2022/11/01 03:35:32;;;;;;;9.00;3.65;;;14.40;99.90;;;;;;5018514;28;20040;-72
2022/11/01 03:38:06;;;;;;;13.98;2.90;;;14.40;99.90;;;;;;5021186;28;20053;-72
2022/11/01 03:40:33;;;;;;;15.13;3.58;;;14.40;99.90;;;;;;5014365;28;20026;-72
2022/11/01 03:43:05;;;;;;;6.80;2.97;;;14.50;99.90;;;;;;5016873;28;20483;-71
2022/11/01 03:45:36;;;;;;;9.63;2.50;;;14.40;99.90;;;;;;5028124;28;20041;-72
2022/11/01 03:48:04;;;;;;;10.48;3.50;;;14.40;99.90;;;;;;5026346;28;20038;-71
2022/11/01 03:50:30;;;;;;;9.65;2.65;;;14.40;99.90;;;;;;5018986;28;20021;-72
2022/11/01 03:52:56;;;;;;;11.20;3.03;;;14.40;99.90;;;;;;5022710;28;20026;-71
2022/11/01 03:55:22;;;;;;;7.90;2.45;;;14.40;99.90;;;;;;5024287;28;20061;-72
2022/11/01 03:57:57;;;;;;;7.93;2.55;;;14.40;99.90;;;;;;5022329;28;20500;-72
2022/11/01 04:00:28;;;;;;;7.45;2.80;;;14.40;99.90;;;;;;5021934;28;20020;-72
2022/11/01 04:02:55;;;;;;;8.20;3.00;;;14.40;99.90;;;;;;5016729;28;20030;-72
2022/11/01 04:05:23;;;;;;;10.35;2.55;;;14.40;99.90;;;;;;5018265;28;20029;-71
2022/11/01 04:07:50;;;;;;;9.05;2.42;;;14.40;99.90;;;;;;5016508;28;20033;-72
2022/11/01 04:10:17;;;;;;;10.60;3.20;;;14.40;99.90;;;;;;5011633;28;20427;-72
2022/11/01 04:12:45;;;;;;;15.05;4.22;;;14.40;99.90;;;;;;5020376;28;20049;-72
2022/11/01 04:20:47;;;;;;;8.13;3.25;;;14.40;99.90;;;;;;5026289;28;20037;-73
2022/11/01 04:23:13;;;;;;;8.30;2.72;;;14.50;99.90;;;;;;5024459;28;20034;-72
2022/11/01 04:25:38;;;;;;;11.73;3.17;;;14.40;99.90;;;;;;5025772;28;20056;-73
2022/11/01 04:28:04;;;;;;;5.70;2.50;;;14.40;99.90;;;;;;5029541;28;20065;-72
2022/11/01 04:30:30;;;;;;;9.00;2.88;;;14.40;99.90;;;;;;5021543;28;20386;-73
2022/11/01 04:32:56;;;;;;;10.30;2.88;;;14.40;99.90;;;;;;5023629;28;20078;-73
2022/11/01 04:35:22;;;;;;;18.80;3.17;;;14.40;99.90;;;;;;5017578;28;20022;-73
2022/11/01 04:37:56;;;;;;;12.02;3.92;;;14.40;99.90;;;;;;5018229;28;20022;-73
2022/11/01 04:40:21;;;;;;;10.02;2.95;;;14.40;99.90;;;;;;5014958;28;20022;-73
2022/11/01 04:42:47;;;;;;;13.60;3.75;;;14.40;99.90;;;;;;5034136;28;20034;-73
2022/11/01 04:45:13;;;;;;;8.75;3.05;;;14.40;99.90;;;;;;5013146;28;20030;-73
2022/11/01 04:47:49;;;;;;;20.63;3.70;;;14.30;99.90;;;;;;5015095;28;20029;-73
2022/11/01 04:50:16;;;;;;;15.18;3.05;;;14.40;99.90;;;;;;5016493;28;20022;-73
2022/11/01 04:52:41;;;;;;;11.30;3.47;;;14.40;99.90;;;;;;5026997;28;20486;-73
2022/11/01 04:55:08;;;;;;;14.10;2.83;;;14.40;99.90;;;;;;5026844;28;20018;-73
2022/11/01 04:57:41;;;;;;;9.15;3.13;;;14.40;99.90;;;;;;5031051;28;20025;-73
2022/11/01 05:00:11;;;;;;;8.00;2.72;;;14.40;99.90;;;;;;5021966;28;20025;-73
2022/11/01 05:02:38;;;;;;;9.73;3.47;;;14.40;99.90;;;;;;5024992;28;20468;-73
2022/11/01 05:05:05;;;;;;;9.07;3.05;;;14.30;99.90;;;;;;5019106;28;20498;-73
2022/11/01 05:07:31;;;;;;;13.57;3.40;;;14.40;99.90;;;;;;5019924;28;20053;-73
2022/11/01 05:09:57;;;;;;;11.15;4.43;;;14.40;99.90;;;;;;5014757;28;20030;-73
2022/11/01 05:12:23;;;;;;;11.38;3.45;;;14.30;99.90;;;;;;5029079;28;20503;-73
2022/11/01 05:14:49;;;;;;;18.42;3.88;;;14.30;99.90;;;;;;5012851;28;20045;-73
2022/11/01 05:17:14;;;;;;;22.35;4.18;;;14.30;99.90;;;;;;5018239;28;20040;-73
2022/11/01 05:19:40;;;;;;;14.82;4.65;;;14.40;99.90;;;;;;5014455;28;20018;-73
2022/11/01 05:22:06;;;;;;;9.65;2.80;;;14.30;99.90;;;;;;5014754;28;20029;-73
2022/11/01 05:24:32;;;;;;;14.48;4.55;;;14.40;99.90;;;;;;5014349;28;20010;-73
2022/11/01 05:26:59;;;;;;;12.48;3.60;;;14.40;99.90;;;;;;5033530;28;20132;-73
2022/11/01 05:29:26;;;;;;;13.00;3.08;;;14.30;99.90;;;;;;5014866;28;20017;-73
2022/11/01 05:31:52;;;;;;;15.32;3.70;;;14.40;99.90;;;;;;5033311;28;20058;-73
2022/11/01 05:34:19;;;;;;;13.40;3.45;;;14.40;99.90;;;;;;5012459;28;20109;-72
2022/11/01 05:36:44;;;;;;;10.52;3.47;;;14.40;99.90;;;;;;5018315;28;20014;-73
2022/11/01 05:39:10;;;;;;;13.30;3.67;;;14.40;99.90;;;;;;5013434;28;20519;-73
2022/11/01 05:41:36;;;;;;;10.27;3.72;;;14.40;99.90;;;;;;5017853;28;20072;-72
2022/11/01 05:44:02;;;;;;;16.85;3.40;;;14.40;99.90;;;;;;5011297;28;20027;-72
2022/11/01 05:46:28;;;;;;;11.55;3.85;;;14.50;99.90;;;;;;5017252;28;20488;-74
2022/11/01 05:48:54;;;;;;;17.30;3.70;;;14.50;99.90;;;;;;5027790;28;20026;-73
2022/11/01 05:51:20;;;;;;;10.30;3.03;;;14.50;99.90;;;;;;5027375;28;20029;-73
2022/11/01 05:53:48;;;;;;;11.85;4.15;;;14.50;99.90;;;;;;5028291;28;20105;-73
2022/11/01 05:56:15;;;;;;;14.05;3.35;;;14.50;99.90;;;;;;5025206;28;20109;-73
2022/11/01 05:58:42;;;;;;;18.48;4.05;;;14.50;99.90;;;;;;5025725;28;20024;-73
2022/11/01 06:01:08;;;;;;;8.07;3.80;;;14.40;99.90;;;;;;5022748;28;20025;-73
2022/11/01 06:03:35;;;;;;;11.93;3.92;;;14.40;99.90;;;;;;5020285;28;20023;-73
2022/11/01 06:06:02;;;;;;;11.30;3.72;;;14.40;99.90;;;;;;5019267;28;20034;-73
2022/11/01 06:08:29;;;;;;;22.58;5.18;;;14.40;99.90;;;;;;5018445;28;20034;-73
2022/11/01 06:11:04;;;;;;;11.82;4.53;;;14.40;99.90;;;;;;5014520;28;20022;-73
2022/11/01 06:13:30;;;;;;;8.18;3.55;;;14.30;99.90;;;;;;5023639;28;20049;-72
2022/11/01 06:16:03;;;;;;;8.40;4.38;;;14.30;99.90;;;;;;5023957;28;20079;-73
2022/11/01 06:18:29;;;;;;;10.35;3.53;;;14.30;99.90;;;;;;5025999;28;20030;-74
2022/11/01 06:20:56;;;;;;;11.80;3.47;;;14.30;99.90;;;;;;5021825;28;20022;-73
2022/11/01 06:23:23;;;;;;;14.70;3.65;;;14.30;99.90;;;;;;5025890;28;20025;-73
2022/11/01 06:25:48;;;;;;;15.40;4.47;;;14.20;99.90;;;;;;5029416;28;20025;-73
2022/11/01 06:28:14;;;;;;;13.57;3.97;;;14.20;99.90;;;;;;5025545;28;20040;-73
2022/11/01 06:30:42;;;;;;;13.45;3.97;;;14.20;99.90;;;;;;5024569;28;20103;-73
2022/11/01 06:33:09;;;;;;;15.88;3.83;;;14.20;99.90;;;;;;5023922;28;20018;-73
2022/11/01 06:35:36;;;;;;;14.98;4.28;;;14.20;99.90;;;;;;5019110;28;20108;-73
2022/11/01 06:38:05;;;;;;;16.90;4.10;;;14.20;99.90;;;;;;5023438;28;20025;-73
2022/11/01 06:40:31;;;;;;;12.00;4.20;;;14.20;99.90;;;;;;5016829;28;20022;-73
2022/11/01 06:43:02;;;;;;;11.93;3.22;;;14.20;99.90;;;;;;5028658;28;20038;-73
2022/11/01 06:45:29;;;;;;;;;;;14.20;99.90;;;;;;5028768;28;20034;-73
2022/11/01 06:47:55;;;;;;;12.52;3.92;;;14.30;99.90;;;;;;5016973;28;19960;-74
2022/11/01 06:50:21;;;;;;;16.80;4.75;;;14.30;99.90;;;;;;5019904;28;20014;-74
2022/11/01 06:52:47;;;;;;;11.40;3.17;;;14.30;99.90;;;;;;5027114;28;20393;-73
2022/11/01 06:55:13;;;;;;;11.52;3.30;;;14.40;99.90;;;;;;5024458;28;20025;-73
2022/11/01 06:57:39;;;;;;;10.00;3.58;;;14.40;99.90;;;;;;5027023;28;20080;-73
2022/11/01 07:00:07;;;;;;;7.50;2.80;;;14.40;99.90;;;;;;5019790;28;20014;-73
2022/11/01 07:02:32;;;;;;;8.82;3.05;;;14.50;99.90;;;;;;5032786;28;20034;-73
2022/11/01 07:04:58;;;;;;;12.98;4.13;;;14.60;99.90;;;;;;5026928;28;20080;-73
2022/11/01 07:07:24;;;;;;;9.35;3.13;;;14.50;99.90;;;;;;5021147;28;20030;-73
2022/11/01 07:09:50;;;;;;;8.52;3.15;;;14.60;99.90;;;;;;5013544;28;20022;-73
2022/11/01 07:12:15;;;;;;;14.52;3.10;;;14.60;99.90;;;;;;5016960;28;20026;-73
2022/11/01 07:14:41;;;;;;;9.73;3.17;;;14.60;99.90;;;;;;5018060;28;20025;-73
2022/11/01 07:17:07;;;;;;;15.55;4.05;;;14.60;99.90;;;;;;5026063;28;20054;-74
2022/11/01 07:19:33;;;;;;;9.38;3.22;;;14.70;99.90;;;;;;5019759;28;20028;-73
2022/11/01 07:21:59;;;;;;;16.67;4.05;;;14.70;99.90;;;;;;5041049;28;20017;-73
2022/11/01 07:24:24;;;;;;;12.15;3.58;;;14.90;99.90;;;;;;5025592;28;20025;-73
2022/11/01 07:26:50;;;;;;;13.30;3.85;;;14.90;99.90;;;;;;5026952;28;20037;-73
2022/11/01 07:29:16;;;;;;;15.93;3.03;;;14.90;99.90;;;;;;5014350;28;20029;-73
2022/11/01 07:31:42;;;;;;;13.05;3.35;;;15.00;99.90;;;;;;5020100;28;20052;-73
2022/11/01 07:34:08;;;;;;;7.78;3.03;;;15.00;99.90;;;;;;5011827;28;20109;-73
2022/11/01 07:36:34;;;;;;;14.73;3.33;;;15.10;99.90;;;;;;5015000;28;20033;-73
2022/11/01 07:38:59;;;;;;;8.60;3.25;;;15.20;99.90;;;;;;5010968;28;20024;-73
2022/11/01 07:41:26;;;;;;;12.32;3.17;;;15.20;99.90;;;;;;5006058;28;20090;-73
2022/11/01 07:43:52;;;;;;;13.95;4.05;;;15.20;99.90;;;;;;5003614;28;20033;-73
2022/11/01 07:46:18;;;;;;;9.00;3.13;;;15.20;99.90;;;;;;5023496;28;20558;-73
2022/11/01 07:48:43;;;;;;;7.10;3.00;;;15.30;99.90;;;;;;5013766;28;20030;-75
2022/11/01 07:51:09;;;;;;;13.38;3.60;;;15.40;99.90;;;;;;5020707;28;20045;-74
2022/11/01 07:53:35;;;;;;;9.90;3.10;;;15.40;99.90;;;;;;5020856;28;20026;-74
2022/11/01 07:56:01;;;;;;;9.27;2.95;;;15.50;99.90;;;;;;5018176;28;20464;-74
2022/11/01 07:58:28;;;;;;;5.50;2.85;;;15.50;99.90;;;;;;5014533;28;20017;-73
2022/11/01 08:00:53;;;;;;;8.13;2.67;;;15.60;99.90;;;;;;5012563;28;20026;-73
2022/11/01 08:03:20;;;;;;;18.75;3.83;;;15.60;99.90;;;;;;5013985;28;20028;-73
2022/11/01 08:05:46;;;;;;;11.20;3.55;;;15.50;99.90;;;;;;5010000;28;20408;-73
2022/11/01 08:08:14;;;;;;;6.60;2.60;;;15.60;99.90;;;;;;5018766;28;20075;-73
2022/11/01 08:10:41;;;;;;;10.02;3.13;;;15.60;99.90;;;;;;5018694;28;20080;-73
2022/11/01 08:13:08;;;;;;;9.50;2.83;;;15.70;99.90;;;;;;5023009;28;20061;-73
2022/11/01 08:15:34;;;;;;;6.60;2.60;;;15.70;99.90;;;;;;5018190;28;20138;-72
2022/11/01 08:18:00;;;;;;;11.68;3.20;;;15.70;99.90;;;;;;5021514;28;20041;-72
2022/11/01 08:20:26;;;;;;;8.85;3.35;;;15.70;99.90;;;;;;5014821;28;20033;-73
2022/11/01 08:22:53;;;;;;;11.02;3.22;;;15.70;99.90;;;;;;5014474;28;20022;-73
2022/11/01 08:25:19;;;;;;;6.18;3.13;;;15.70;99.90;;;;;;5012323;28;20022;-73
2022/11/01 08:27:45;;;;;;;11.93;3.15;;;15.70;99.90;;;;;;5023692;28;20021;-73
2022/11/01 08:30:12;;;;;;;15.13;4.18;;;15.70;99.90;;;;;;5015891;28;20515;-72
2022/11/01 08:32:38;;;;;;;9.05;3.45;;;15.80;99.90;;;;;;5021269;28;20497;-73
2022/11/01 08:35:04;;;;;;;9.38;2.97;;;15.80;99.90;;;;;;5010483;28;20077;-73
2022/11/01 08:37:30;;;;;;;15.48;4.03;;;15.80;99.90;;;;;;5024960;28;20083;-73
2022/11/01 08:39:56;;;;;;;18.73;3.50;;;15.90;99.90;;;;;;5016138;28;20030;-73
2022/11/01 08:42:22;;;;;;;10.50;3.70;;;16.00;99.90;;;;;;5030712;28;20109;-73
2022/11/01 08:44:47;;;;;;;15.10;3.47;;;16.10;99.90;;;;;;5020115;28;20030;-72
2022/11/01 08:47:13;;;;;;;9.35;3.08;;;16.10;99.90;;;;;;5020618;28;20049;-73
2022/11/01 08:49:39;;;;;;;10.98;3.17;;;16.20;99.90;;;;;;5028343;28;20053;-73
2022/11/01 08:52:05;;;;;;;11.75;3.45;;;16.20;99.90;;;;;;5013614;28;20026;-73
2022/11/01 08:54:32;;;;;;;6.43;2.72;;;16.10;99.90;;;;;;5011175;28;20030;-73
2022/11/01 08:56:57;;;;;;;14.40;4.53;;;16.10;99.90;;;;;;5026744;28;20014;-73
2022/11/01 08:59:23;;;;;;;6.70;3.35;;;16.10;99.90;;;;;;5016402;28;20058;-73
2022/11/01 09:01:52;;;;;;;8.73;2.90;;;16.20;99.90;;;;;;5025975;28;20013;-73
2022/11/01 09:04:18;;;;;;;16.17;3.67;;;16.20;99.90;;;;;;5015387;28;20030;-72
2022/11/01 09:06:43;;;;;;;13.88;4.03;;;16.30;99.90;;;;;;5019394;28;20057;-73
2022/11/01 09:09:09;;;;;;;15.25;3.00;;;16.30;99.90;;;;;;5021990;28;20030;-72
2022/11/01 09:11:35;;;;;;;12.02;2.47;;;16.20;99.90;;;;;;5020597;28;20026;-73
2022/11/01 09:14:01;;;;;;;7.72;2.38;;;16.20;99.90;;;;;;5028694;28;20069;-73
2022/11/01 09:16:28;;;;;;;7.90;2.30;;;16.30;99.90;;;;;;5030483;28;20032;-73
2022/11/01 09:18:54;;;;;;;6.43;2.45;;;16.40;99.90;;;;;;5018954;28;20080;-73
2022/11/01 09:21:20;;;;;;;7.28;2.03;;;16.40;99.90;;;;;;5029535;28;20025;-73
2022/11/01 09:23:45;;;;;;;8.20;3.13;;;16.50;99.90;;;;;;5019567;28;20573;-73
2022/11/01 09:26:12;;;;;;;12.00;2.97;;;16.50;99.90;;;;;;5027018;28;20028;-72
2022/11/01 09:28:38;;;;;;;6.55;2.35;;;16.40;99.90;;;;;;5018979;28;20053;-73
2022/11/01 09:31:05;;;;;;;10.80;2.95;;;16.30;99.90;;;;;;5020521;28;20021;-72
2022/11/01 09:33:32;;;;;;;8.32;2.67;;;16.20;99.90;;;;;;5017499;28;20030;-73
2022/11/01 09:35:58;;;;;;;10.18;3.25;;;16.20;99.90;;;;;;5016649;28;20022;-73
2022/11/01 09:38:25;;;;;;;10.70;2.67;;;16.10;99.90;;;;;;5016249;28;20033;-73
2022/11/01 09:41:13;;;;;;;10.93;3.08;;;16.20;99.90;;;;;;5027671;28;20475;-73
2022/11/01 09:43:43;;;;;;;8.80;2.78;;;16.30;99.90;;;;;;5005776;28;20049;-74
2022/11/01 09:46:14;;;;;;;9.88;2.40;;;16.40;99.90;;;;;;5022939;28;20087;-74
2022/11/01 09:48:41;;;;;;;11.30;2.92;;;16.50;99.90;;;;;;5025502;28;20022;-74
2022/11/01 09:51:19;;;;;;;9.73;2.80;;;16.60;99.90;;;;;;5036825;28;20050;-73
2022/11/01 09:53:46;;;;;;;11.38;2.25;;;16.70;99.90;;;;;;5018159;28;20061;-74
2022/11/01 09:56:46;;;;;;;8.95;2.50;;;16.90;99.90;;;;;;5016573;28;20022;-74
2022/11/01 09:59:33;;;;;;;10.57;2.95;;;17.30;99.90;;;;;;5014287;28;20034;-73
2022/11/01 10:02:25;;;;;;;11.65;3.00;;;17.60;99.90;;;;;;5024979;28;20021;-74
2022/11/01 10:05:21;;;;;;;8.23;2.15;;;17.80;99.90;;;;;;5016549;28;20018;-73
2022/11/01 10:08:07;;;;;;;10.82;2.50;;;17.90;99.90;;;;;;5022304;28;20022;-73
2022/11/01 10:10:58;;;;;;;7.40;3.08;;;18.10;99.90;;;;;;5023050;28;20026;-73
2022/11/01 10:13:47;;;;;;;9.50;3.15;;;18.20;99.90;;;;;;5027360;28;20106;-73
2022/11/01 10:16:35;;;;;;;10.43;2.83;;;18.10;99.90;;;;;;5029788;28;20022;-73
2022/11/01 10:19:03;;;;;;;21.98;3.45;;;18.00;99.90;;;;;;5019008;28;20037;-73
2022/11/01 10:21:41;;;;;;;13.80;2.42;;;17.90;99.90;;;;;;5021362;28;20030;-73
2022/11/01 10:24:21;;;;;;;11.88;2.70;;;17.90;99.90;;;;;;5008821;28;20030;-73
2022/11/01 10:26:53;;;;;;;11.80;3.08;;;18.00;99.90;;;;;;5013656;28;20026;-73
2022/11/01 10:29:37;;;;;;;10.73;2.85;;;17.90;99.90;;;;;;5008894;28;20109;-73
2022/11/01 10:32:11;;;;;;;12.18;2.75;;;17.90;99.90;;;;;;5021327;28;20080;-73
2022/11/01 10:34:39;;;;;;;7.60;2.92;;;17.70;99.90;;;;;;5022903;28;20108;-73
2022/11/01 10:37:38;;;;;;;14.20;2.92;;;17.60;99.90;;;;;;5020178;28;20014;-73
2022/11/01 10:40:19;;;;;;;10.15;3.58;;;17.40;99.90;;;;;;5024545;28;20157;-73
2022/11/01 10:42:45;;;;;;;7.75;2.55;;;17.40;99.90;;;;;;5030790;28;20493;-74
2022/11/01 10:45:16;;;;;;;7.57;2.75;;;17.40;99.90;;;;;;5015407;28;20042;-73
2022/11/01 10:47:42;;;;;;;12.20;2.22;;;17.40;99.90;;;;;;5027137;28;20030;-73
2022/11/01 10:50:14;;;;;;;6.38;2.83;;;17.40;99.90;;;;;;5031062;28;20029;-73
2022/11/01 10:53:06;;;;;;;6.43;1.95;;;17.50;99.90;;;;;;5026525;28;20032;-73
2022/11/01 10:56:04;;;;;;;9.63;2.33;;;17.50;99.90;;;;;;5031568;28;20022;-73
2022/11/01 10:58:46;;;;;;;6.60;1.98;;;17.70;99.90;;;;;;5019143;28;20071;-74
2022/11/01 11:01:18;;;;;;;20.15;3.45;;;17.70;99.90;;;;;;5031769;28;20022;-73
2022/11/01 11:03:45;;;;;;;11.18;2.78;;;17.80;99.90;;;;;;5023740;28;20075;-73
2022/11/01 11:06:14;;;;;;;8.88;2.40;;;17.90;99.90;;;;;;5021102;28;20017;-72
2022/11/01 11:08:43;;;;;;;9.80;2.60;;;18.00;99.90;;;;;;5018745;28;20015;-73
2022/11/01 11:11:15;;;;;;;8.90;2.50;;;18.10;99.90;;;;;;5016754;28;20049;-73
2022/11/01 11:13:52;;;;;;;7.75;2.83;;;18.10;99.90;;;;;;5016388;28;20042;-73
2022/11/01 11:16:30;;;;;;;8.65;3.03;;;18.10;99.90;;;;;;5027144;28;20101;-74
2022/11/01 11:19:15;;;;;;;9.60;2.22;;;18.00;99.90;;;;;;5025950;28;20029;-73
2022/11/01 11:21:43;;;;;;;12.65;3.20;;;18.00;99.90;;;;;;5027400;28;20044;-74
2022/11/01 11:24:30;;;;;;;12.68;2.90;;;17.90;99.90;;;;;;5022847;28;20021;-74
2022/11/01 11:26:57;;;;;;;10.80;2.80;;;17.80;99.90;;;;;;5026214;28;20026;-74
2022/11/01 11:29:34;;;;;;;11.02;2.70;;;17.80;99.90;;;;;;5020862;28;20083;-73
2022/11/01 11:32:03;;;;;;;7.47;2.47;;;17.70;99.90;;;;;;5025357;28;20049;-74
2022/11/01 11:34:32;;;;;;;13.32;2.75;;;17.60;99.90;;;;;;5017125;28;20079;-73
2022/11/01 11:37:00;;;;;;;11.13;2.47;;;17.50;99.90;;;;;;5012473;28;20014;-74
2022/11/01 11:39:34;;;;;;;11.02;2.88;;;17.60;99.90;;;;;;5001707;28;20112;-74
2022/11/01 11:42:23;;;;;;;9.43;2.47;;;17.60;99.90;;;;;;5028189;28;20033;-74
2022/11/01 11:44:53;;;;;;;10.30;2.55;;;17.70;99.90;;;;;;5020960;28;20438;-73
2022/11/01 11:47:33;;;;;;;10.27;3.17;;;18.00;99.90;;;;;;5027014;28;20028;-73
2022/11/01 11:49:59;;;;;;;7.90;2.53;;;18.10;99.90;;;;;;5017126;28;20026;-73
2022/11/01 11:52:32;;;;;;;9.32;2.72;;;18.50;99.90;;;;;;5022421;28;20077;-74
2022/11/01 11:54:58;;;;;;;7.72;3.03;;;18.80;99.90;;;;;;5017311;28;20033;-74
2022/11/01 11:57:28;;;;;;;10.05;2.60;;;19.00;99.90;;;;;;5022314;28;20402;-74
2022/11/01 11:59:58;;;;;;;9.13;2.05;;;19.30;99.90;;;;;;5021489;28;20053;-74
2022/11/01 12:02:31;;;;;;;13.18;2.72;;;19.40;99.90;;;;;;5019086;28;20116;-74
2022/11/01 12:05:02;;;;;;;11.68;2.42;;;19.50;99.90;;;;;;5009828;28;20093;-74
2022/11/01 12:07:54;;;;;;;9.85;2.63;;;19.60;99.90;;;;;;5028664;28;20116;-73
2022/11/01 12:10:33;;;;;;;15.40;3.40;;;19.80;99.90;;;;;;5022309;28;20568;-74
2022/11/01 12:13:00;;;;;;;7.68;2.58;;;19.50;99.90;;;;;;5019057;28;20071;-73
2022/11/01 12:15:35;;;;;;;7.35;2.20;;;19.20;99.90;;;;;;5022728;28;20466;-74
2022/11/01 12:18:18;;;;;;;12.20;3.22;;;19.10;99.90;;;;;;5012731;28;20026;-74
2022/11/01 12:20:51;;;;;;;7.70;2.55;;;19.20;99.90;;;;;;5022039;28;20026;-74
2022/11/01 12:23:37;;;;;;;8.15;2.72;;;19.20;99.90;;;;;;5022651;28;20061;-74
2022/11/01 12:26:07;;;;;;;8.50;2.20;;;19.30;99.90;;;;;;5021625;28;20018;-74
2022/11/01 12:28:42;;;;;;;8.52;2.53;;;19.30;99.90;;;;;;5018882;28;20029;-74
2022/11/01 12:31:26;;;;;;;7.93;2.58;;;19.40;99.90;;;;;;5018746;28;20022;-73
2022/11/01 12:33:57;;;;;;;10.80;2.42;;;19.30;99.90;;;;;;5011320;28;20026;-73
2022/11/01 12:36:48;;;;;;;11.23;2.35;;;19.30;99.90;;;;;;5020841;28;20029;-74
2022/11/01 12:39:30;;;;;;;15.20;2.40;;;19.40;99.90;;;;;;5018610;28;20049;-74
2022/11/01 12:42:02;;;;;;;4.68;2.00;;;19.50;99.90;;;;;;5018775;28;20018;-74
2022/11/01 12:44:42;;;;;;;23.52;2.50;;;19.50;99.90;;;;;;5012360;28;20037;-74
2022/11/01 12:47:28;;;;;;;10.40;3.03;;;19.40;99.90;;;;;;5016389;28;20025;-74
2022/11/01 12:49:57;;;;;;;11.27;2.47;;;19.40;99.90;;;;;;5020148;28;20026;-74
2022/11/01 12:52:43;;;;;;;8.60;2.13;;;19.30;99.90;;;;;;5016393;28;20475;-74
2022/11/01 12:55:19;;;;;;;7.40;2.53;;;19.10;99.90;;;;;;5029095;28;20029;-74
2022/11/01 12:57:45;;;;;;;10.02;2.03;;;19.10;99.90;;;;;;5025694;28;20393;-74
2022/11/01 13:00:16;;;;;;;8.45;2.17;;;19.00;99.90;;;;;;5020220;28;20026;-74
2022/11/01 13:03:03;;;;;;;7.35;2.35;;;19.10;99.90;;;;;;5013606;28;20109;-75
2022/11/01 13:05:50;;;;;;;12.27;3.05;;;19.00;99.90;;;;;;5020314;28;20029;-75
2022/11/01 13:08:54;;;;;;;14.80;2.10;;;19.20;99.90;;;;;;5019847;28;20026;-76
2022/11/01 13:11:34;;;;;;;7.55;2.55;;;19.30;99.90;;;;;;5017004;28;20022;-76